sensor_id;sensor_type;location;lat;lon;timestamp;temperature;humidity
25482;DHT22;13395;50.752;4.268;2024-02-26T00:02:13;7.30;99.90
25482;DHT22;13395;50.752;4.268;2024-02-26T00:04:39;7.30;99.90
25482;DHT22;13395;50.752;4.268;2024-02-26T00:07:05;7.30;99.90
25482;DHT22;13395;50.752;4.268;2024-02-26T00:09:30;7.30;99.90
25482;DHT22;13395;50.752;4.268;2024-02-26T00:11:56;7.20;99.90
25482;DHT22;13395;50.752;4.268;2024-02-26T00:14:23;7.20;99.90
25482;DHT22;13395;50.752;4.268;2024-02-26T00:16:48;7.20;99.90
25482;DHT22;13395;50.752;4.268;2024-02-26T00:19:14;7.10;99.90
25482;DHT22;13395;50.752;4.268;2024-02-26T00:21:40;7.10;99.90
25482;DHT22;13395;50.752;4.268;2024-02-26T00:24:06;7.10;99.90
25482;DHT22;13395;50.752;4.268;2024-02-26T00:26:32;7.10;99.90
25482;DHT22;13395;50.752;4.268;2024-02-26T00:28:57;7.10;99.90
25482;DHT22;13395;50.752;4.268;2024-02-26T00:31:23;7.10;99.90
25482;DHT22;13395;50.752;4.268;2024-02-26T00:33:48;7.10;99.90
25482;DHT22;13395;50.752;4.268;2024-02-26T00:36:14;7.10;99.90
25482;DHT22;13395;50.752;4.268;2024-02-26T00:38:39;7.10;99.90
25482;DHT22;13395;50.752;4.268;2024-02-26T00:41:05;7.10;99.90
25482;DHT22;13395;50.752;4.268;2024-02-26T00:43:31;7.00;99.90
25482;DHT22;13395;50.752;4.268;2024-02-26T00:45:56;7.00;99.90
25482;DHT22;13395;50.752;4.268;2024-02-26T00:48:22;7.00;99.90
25482;DHT22;13395;50.752;4.268;2024-02-26T00:50:51;7.00;99.90
25482;DHT22;13395;50.752;4.268;2024-02-26T00:53:16;6.90;99.90
25482;DHT22;13395;50.752;4.268;2024-02-26T00:55:42;6.90;99.90
25482;DHT22;13395;50.752;4.268;2024-02-26T00:58:07;6.90;99.90
25482;DHT22;13395;50.752;4.268;2024-02-26T01:00:33;6.90;99.90
25482;DHT22;13395;50.752;4.268;2024-02-26T01:02:58;6.90;99.90
25482;DHT22;13395;50.752;4.268;2024-02-26T01:05:25;6.90;99.90
25482;DHT22;13395;50.752;4.268;2024-02-26T01:07:50;6.80;99.90
25482;DHT22;13395;50.752;4.268;2024-02-26T01:10:16;6.80;99.90
25482;DHT22;13395;50.752;4.268;2024-02-26T01:12:41;6.80;99.90
25482;DHT22;13395;50.752;4.268;2024-02-26T01:15:07;6.80;99.90
25482;DHT22;13395;50.752;4.268;2024-02-26T01:17:33;6.80;99.90
25482;DHT22;13395;50.752;4.268;2024-02-26T01:19:59;6.70;99.90
25482;DHT22;13395;50.752;4.268;2024-02-26T01:22:24;6.70;99.90
25482;DHT22;13395;50.752;4.268;2024-02-26T01:24:50;6.70;99.90
25482;DHT22;13395;50.752;4.268;2024-02-26T01:27:15;6.70;99.90
25482;DHT22;13395;50.752;4.268;2024-02-26T01:29:41;6.70;99.90
25482;DHT22;13395;50.752;4.268;2024-02-26T01:32:06;6.70;99.90
25482;DHT22;13395;50.752;4.268;2024-02-26T01:34:32;6.70;99.90
25482;DHT22;13395;50.752;4.268;2024-02-26T01:36:58;6.70;99.90
25482;DHT22;13395;50.752;4.268;2024-02-26T01:39:23;6.80;99.90
25482;DHT22;13395;50.752;4.268;2024-02-26T01:41:49;6.70;99.90
25482;DHT22;13395;50.752;4.268;2024-02-26T01:44:14;6.70;99.90
25482;DHT22;13395;50.752;4.268;2024-02-26T01:46:40;6.70;99.90
25482;DHT22;13395;50.752;4.268;2024-02-26T01:49:06;6.70;99.90
25482;DHT22;13395;50.752;4.268;2024-02-26T01:51:32;6.70;99.90
25482;DHT22;13395;50.752;4.268;2024-02-26T01:53:58;6.70;99.90
25482;DHT22;13395;50.752;4.268;2024-02-26T01:56:25;6.70;99.90
25482;DHT22;13395;50.752;4.268;2024-02-26T01:58:56;6.70;99.90
25482;DHT22;13395;50.752;4.268;2024-02-26T02:01:22;6.70;99.90
25482;DHT22;13395;50.752;4.268;2024-02-26T02:03:50;6.70;99.90
25482;DHT22;13395;50.752;4.268;2024-02-26T02:06:16;6.70;99.90
25482;DHT22;13395;50.752;4.268;2024-02-26T02:08:42;6.60;99.90
25482;DHT22;13395;50.752;4.268;2024-02-26T02:11:08;6.70;99.90
25482;DHT22;13395;50.752;4.268;2024-02-26T02:13:37;6.60;99.90
25482;DHT22;13395;50.752;4.268;2024-02-26T02:16:02;6.60;99.90
25482;DHT22;13395;50.752;4.268;2024-02-26T02:18:28;6.60;99.90
25482;DHT22;13395;50.752;4.268;2024-02-26T02:20:53;6.60;99.90
25482;DHT22;13395;50.752;4.268;2024-02-26T02:23:21;6.60;99.90
25482;DHT22;13395;50.752;4.268;2024-02-26T02:25:46;6.60;99.90
25482;DHT22;13395;50.752;4.268;2024-02-26T02:28:12;6.60;99.90
25482;DHT22;13395;50.752;4.268;2024-02-26T02:30:38;6.60;99.90
25482;DHT22;13395;50.752;4.268;2024-02-26T02:33:04;6.60;99.90
25482;DHT22;13395;50.752;4.268;2024-02-26T02:35:29;6.60;99.90
25482;DHT22;13395;50.752;4.268;2024-02-26T02:37:56;6.60;99.90
25482;DHT22;13395;50.752;4.268;2024-02-26T02:40:22;6.60;99.90
25482;DHT22;13395;50.752;4.268;2024-02-26T02:42:47;6.60;99.90
25482;DHT22;13395;50.752;4.268;2024-02-26T02:45:13;6.60;99.90
25482;DHT22;13395;50.752;4.268;2024-02-26T02:47:38;6.60;99.90
25482;DHT22;13395;50.752;4.268;2024-02-26T02:50:04;6.60;99.90
25482;DHT22;13395;50.752;4.268;2024-02-26T02:52:30;6.60;99.90
25482;DHT22;13395;50.752;4.268;2024-02-26T02:54:56;6.60;99.90
25482;DHT22;13395;50.752;4.268;2024-02-26T02:57:21;6.60;99.90
25482;DHT22;13395;50.752;4.268;2024-02-26T02:59:47;6.50;99.90
25482;DHT22;13395;50.752;4.268;2024-02-26T03:02:12;6.60;99.90
25482;DHT22;13395;50.752;4.268;2024-02-26T03:04:38;6.60;99.90
25482;DHT22;13395;50.752;4.268;2024-02-26T03:07:03;6.60;99.90
25482;DHT22;13395;50.752;4.268;2024-02-26T03:09:29;6.60;99.90
25482;DHT22;13395;50.752;4.268;2024-02-26T03:11:54;6.60;99.90
25482;DHT22;13395;50.752;4.268;2024-02-26T03:14:20;6.60;99.90
25482;DHT22;13395;50.752;4.268;2024-02-26T03:16:45;6.60;99.90
25482;DHT22;13395;50.752;4.268;2024-02-26T03:19:13;6.50;99.90
25482;DHT22;13395;50.752;4.268;2024-02-26T03:21:39;6.50;99.90
25482;DHT22;13395;50.752;4.268;2024-02-26T03:24:05;6.50;99.90
25482;DHT22;13395;50.752;4.268;2024-02-26T03:26:30;6.50;99.90
25482;DHT22;13395;50.752;4.268;2024-02-26T03:28:56;6.50;99.90
25482;DHT22;13395;50.752;4.268;2024-02-26T03:31:22;6.50;99.90
25482;DHT22;13395;50.752;4.268;2024-02-26T03:33:47;6.50;99.90
25482;DHT22;13395;50.752;4.268;2024-02-26T03:36:13;6.50;99.90
25482;DHT22;13395;50.752;4.268;2024-02-26T03:38:38;6.50;99.90
25482;DHT22;13395;50.752;4.268;2024-02-26T03:41:04;6.50;99.90
25482;DHT22;13395;50.752;4.268;2024-02-26T03:43:29;6.50;99.90
25482;DHT22;13395;50.752;4.268;2024-02-26T03:45:55;6.50;99.90
25482;DHT22;13395;50.752;4.268;2024-02-26T03:48:20;6.50;99.90
25482;DHT22;13395;50.752;4.268;2024-02-26T03:50:46;6.50;99.90
25482;DHT22;13395;50.752;4.268;2024-02-26T03:53:11;6.50;99.90
25482;DHT22;13395;50.752;4.268;2024-02-26T03:55:38;6.50;99.90
25482;DHT22;13395;50.752;4.268;2024-02-26T03:58:03;6.50;99.90
25482;DHT22;13395;50.752;4.268;2024-02-26T04:00:29;6.50;99.90
25482;DHT22;13395;50.752;4.268;2024-02-26T04:02:55;6.50;99.90
25482;DHT22;13395;50.752;4.268;2024-02-26T04:05:21;6.50;99.90
25482;DHT22;13395;50.752;4.268;2024-02-26T04:07:46;6.50;99.90
25482;DHT22;13395;50.752;4.268;2024-02-26T04:10:12;6.50;99.90
25482;DHT22;13395;50.752;4.268;2024-02-26T04:12:41;6.50;99.90
25482;DHT22;13395;50.752;4.268;2024-02-26T04:15:07;6.50;99.90
25482;DHT22;13395;50.752;4.268;2024-02-26T04:17:33;6.50;99.90
25482;DHT22;13395;50.752;4.268;2024-02-26T04:19:58;6.50;99.90
25482;DHT22;13395;50.752;4.268;2024-02-26T04:22:24;6.50;99.90
25482;DHT22;13395;50.752;4.268;2024-02-26T04:24:49;6.50;99.90
25482;DHT22;13395;50.752;4.268;2024-02-26T04:27:15;6.50;99.90
25482;DHT22;13395;50.752;4.268;2024-02-26T04:29:40;6.50;99.90
25482;DHT22;13395;50.752;4.268;2024-02-26T04:32:06;6.50;99.90
25482;DHT22;13395;50.752;4.268;2024-02-26T04:34:31;6.50;99.90
25482;DHT22;13395;50.752;4.268;2024-02-26T04:36:57;6.50;99.90
25482;DHT22;13395;50.752;4.268;2024-02-26T04:39:22;6.50;99.90
25482;DHT22;13395;50.752;4.268;2024-02-26T04:41:48;6.50;99.90
25482;DHT22;13395;50.752;4.268;2024-02-26T04:44:13;6.40;99.90
25482;DHT22;13395;50.752;4.268;2024-02-26T04:46:39;6.50;99.90
25482;DHT22;13395;50.752;4.268;2024-02-26T04:49:04;6.50;99.90
25482;DHT22;13395;50.752;4.268;2024-02-26T04:51:30;6.50;99.90
25482;DHT22;13395;50.752;4.268;2024-02-26T04:53:55;6.50;99.90
25482;DHT22;13395;50.752;4.268;2024-02-26T04:56:21;6.50;99.90
25482;DHT22;13395;50.752;4.268;2024-02-26T04:58:47;6.40;99.90
25482;DHT22;13395;50.752;4.268;2024-02-26T05:01:12;6.40;99.90
25482;DHT22;13395;50.752;4.268;2024-02-26T05:03:38;6.40;99.90
25482;DHT22;13395;50.752;4.268;2024-02-26T05:06:04;6.40;99.90
25482;DHT22;13395;50.752;4.268;2024-02-26T05:08:30;6.40;99.90
25482;DHT22;13395;50.752;4.268;2024-02-26T05:10:56;6.40;99.90
25482;DHT22;13395;50.752;4.268;2024-02-26T05:13:21;6.40;99.90
25482;DHT22;13395;50.752;4.268;2024-02-26T05:15:47;6.40;99.90
25482;DHT22;13395;50.752;4.268;2024-02-26T05:18:15;6.30;99.90
25482;DHT22;13395;50.752;4.268;2024-02-26T05:20:40;6.40;99.90
25482;DHT22;13395;50.752;4.268;2024-02-26T05:23:06;6.30;99.90
25482;DHT22;13395;50.752;4.268;2024-02-26T05:25:31;6.40;99.90
25482;DHT22;13395;50.752;4.268;2024-02-26T05:27:57;6.30;99.90
25482;DHT22;13395;50.752;4.268;2024-02-26T05:30:22;6.40;99.90
25482;DHT22;13395;50.752;4.268;2024-02-26T05:32:48;6.30;99.90
25482;DHT22;13395;50.752;4.268;2024-02-26T05:35:13;6.40;99.90
25482;DHT22;13395;50.752;4.268;2024-02-26T05:37:40;6.30;99.90
25482;DHT22;13395;50.752;4.268;2024-02-26T05:40:05;6.30;99.90
25482;DHT22;13395;50.752;4.268;2024-02-26T05:42:31;6.30;99.90
25482;DHT22;13395;50.752;4.268;2024-02-26T05:44:57;6.30;99.90
25482;DHT22;13395;50.752;4.268;2024-02-26T05:47:23;6.30;99.90
25482;DHT22;13395;50.752;4.268;2024-02-26T05:49:48;6.30;99.90
25482;DHT22;13395;50.752;4.268;2024-02-26T05:52:14;6.30;99.90
25482;DHT22;13395;50.752;4.268;2024-02-26T05:54:39;6.30;99.90
25482;DHT22;13395;50.752;4.268;2024-02-26T05:57:05;6.30;99.90
25482;DHT22;13395;50.752;4.268;2024-02-26T05:59:30;6.30;99.90
25482;DHT22;13395;50.752;4.268;2024-02-26T06:01:56;6.30;99.90
25482;DHT22;13395;50.752;4.268;2024-02-26T06:04:21;6.30;99.90
25482;DHT22;13395;50.752;4.268;2024-02-26T06:06:47;6.30;99.90
25482;DHT22;13395;50.752;4.268;2024-02-26T06:09:12;6.30;99.90
25482;DHT22;13395;50.752;4.268;2024-02-26T06:11:38;6.30;99.90
25482;DHT22;13395;50.752;4.268;2024-02-26T06:14:04;6.30;99.90
25482;DHT22;13395;50.752;4.268;2024-02-26T06:16:29;6.30;99.90
25482;DHT22;13395;50.752;4.268;2024-02-26T06:18:55;6.30;99.90
25482;DHT22;13395;50.752;4.268;2024-02-26T06:21:21;6.30;99.90
25482;DHT22;13395;50.752;4.268;2024-02-26T06:23:47;6.30;99.90
25482;DHT22;13395;50.752;4.268;2024-02-26T06:26:13;6.30;99.90
25482;DHT22;13395;50.752;4.268;2024-02-26T06:28:38;6.30;99.90
25482;DHT22;13395;50.752;4.268;2024-02-26T06:31:05;6.40;99.90
25482;DHT22;13395;50.752;4.268;2024-02-26T06:33:31;6.40;99.90
25482;DHT22;13395;50.752;4.268;2024-02-26T06:35:57;6.40;99.90
25482;DHT22;13395;50.752;4.268;2024-02-26T06:38:23;6.30;99.90
25482;DHT22;13395;50.752;4.268;2024-02-26T06:40:48;6.40;99.90
25482;DHT22;13395;50.752;4.268;2024-02-26T06:43:14;6.40;99.90
25482;DHT22;13395;50.752;4.268;2024-02-26T06:45:39;6.40;99.90
25482;DHT22;13395;50.752;4.268;2024-02-26T06:48:05;6.40;99.90
25482;DHT22;13395;50.752;4.268;2024-02-26T06:50:31;6.40;99.90
25482;DHT22;13395;50.752;4.268;2024-02-26T06:52:56;6.40;99.90
25482;DHT22;13395;50.752;4.268;2024-02-26T06:55:22;6.40;99.90
25482;DHT22;13395;50.752;4.268;2024-02-26T06:57:47;6.40;99.90
25482;DHT22;13395;50.752;4.268;2024-02-26T07:00:13;6.40;99.90
25482;DHT22;13395;50.752;4.268;2024-02-26T07:02:41;6.40;99.90
25482;DHT22;13395;50.752;4.268;2024-02-26T07:05:07;6.40;99.90
25482;DHT22;13395;50.752;4.268;2024-02-26T07:07:33;6.40;99.90
25482;DHT22;13395;50.752;4.268;2024-02-26T07:09:58;6.40;99.90
25482;DHT22;13395;50.752;4.268;2024-02-26T07:12:24;6.40;99.90
25482;DHT22;13395;50.752;4.268;2024-02-26T07:14:49;6.30;99.90
25482;DHT22;13395;50.752;4.268;2024-02-26T07:17:16;6.30;99.90
25482;DHT22;13395;50.752;4.268;2024-02-26T07:19:41;6.30;99.90
25482;DHT22;13395;50.752;4.268;2024-02-26T07:22:07;6.30;99.90
25482;DHT22;13395;50.752;4.268;2024-02-26T07:24:32;6.40;99.90
25482;DHT22;13395;50.752;4.268;2024-02-26T07:26:58;6.30;99.90
25482;DHT22;13395;50.752;4.268;2024-02-26T07:29:23;6.30;99.90
25482;DHT22;13395;50.752;4.268;2024-02-26T07:31:49;6.30;99.90
25482;DHT22;13395;50.752;4.268;2024-02-26T07:34:14;6.30;99.90
25482;DHT22;13395;50.752;4.268;2024-02-26T07:36:40;6.30;99.90
25482;DHT22;13395;50.752;4.268;2024-02-26T07:39:05;6.30;99.90
25482;DHT22;13395;50.752;4.268;2024-02-26T07:41:31;6.30;99.90
25482;DHT22;13395;50.752;4.268;2024-02-26T07:43:56;6.30;99.90
25482;DHT22;13395;50.752;4.268;2024-02-26T07:46:22;6.30;99.90
25482;DHT22;13395;50.752;4.268;2024-02-26T07:48:47;6.30;99.90
25482;DHT22;13395;50.752;4.268;2024-02-26T07:51:13;6.30;99.90
25482;DHT22;13395;50.752;4.268;2024-02-26T07:53:42;6.30;99.90
25482;DHT22;13395;50.752;4.268;2024-02-26T07:56:08;6.30;99.90
25482;DHT22;13395;50.752;4.268;2024-02-26T07:58:34;6.30;99.90
25482;DHT22;13395;50.752;4.268;2024-02-26T08:00:59;6.30;99.90
25482;DHT22;13395;50.752;4.268;2024-02-26T08:03:25;6.30;99.90
25482;DHT22;13395;50.752;4.268;2024-02-26T08:05:50;6.20;99.90
25482;DHT22;13395;50.752;4.268;2024-02-26T08:08:16;6.20;99.90
25482;DHT22;13395;50.752;4.268;2024-02-26T08:10:42;6.30;99.90
25482;DHT22;13395;50.752;4.268;2024-02-26T08:13:07;6.20;99.90
25482;DHT22;13395;50.752;4.268;2024-02-26T08:15:33;6.30;99.90
25482;DHT22;13395;50.752;4.268;2024-02-26T08:18:03;6.30;99.90
25482;DHT22;13395;50.752;4.268;2024-02-26T08:20:31;6.30;99.90
25482;DHT22;13395;50.752;4.268;2024-02-26T08:22:57;6.30;99.90
25482;DHT22;13395;50.752;4.268;2024-02-26T08:25:23;6.30;99.90
25482;DHT22;13395;50.752;4.268;2024-02-26T08:27:49;6.30;99.90
25482;DHT22;13395;50.752;4.268;2024-02-26T08:30:15;6.30;99.90
25482;DHT22;13395;50.752;4.268;2024-02-26T08:32:45;6.30;99.90
25482;DHT22;13395;50.752;4.268;2024-02-26T08:35:11;6.30;99.90
25482;DHT22;13395;50.752;4.268;2024-02-26T08:37:36;6.30;99.90
25482;DHT22;13395;50.752;4.268;2024-02-26T08:40:02;6.30;99.90
25482;DHT22;13395;50.752;4.268;2024-02-26T08:42:29;6.30;99.90
25482;DHT22;13395;50.752;4.268;2024-02-26T08:44:55;6.30;99.90
25482;DHT22;13395;50.752;4.268;2024-02-26T08:47:20;6.30;99.90
25482;DHT22;13395;50.752;4.268;2024-02-26T08:49:46;6.30;99.90
25482;DHT22;13395;50.752;4.268;2024-02-26T08:52:11;6.30;99.90
25482;DHT22;13395;50.752;4.268;2024-02-26T08:54:37;6.30;99.90
25482;DHT22;13395;50.752;4.268;2024-02-26T08:57:03;6.30;99.90
25482;DHT22;13395;50.752;4.268;2024-02-26T08:59:28;6.30;99.90
25482;DHT22;13395;50.752;4.268;2024-02-26T09:01:54;6.30;99.90
25482;DHT22;13395;50.752;4.268;2024-02-26T09:04:19;6.30;99.90
25482;DHT22;13395;50.752;4.268;2024-02-26T09:06:46;6.40;99.90
25482;DHT22;13395;50.752;4.268;2024-02-26T09:09:11;6.40;99.90
25482;DHT22;13395;50.752;4.268;2024-02-26T09:11:40;6.40;99.90
25482;DHT22;13395;50.752;4.268;2024-02-26T09:14:05;6.30;99.90
25482;DHT22;13395;50.752;4.268;2024-02-26T09:16:31;6.30;99.90
25482;DHT22;13395;50.752;4.268;2024-02-26T09:18:56;6.30;99.90
25482;DHT22;13395;50.752;4.268;2024-02-26T09:21:22;6.30;99.90
25482;DHT22;13395;50.752;4.268;2024-02-26T09:23:50;6.30;99.90
25482;DHT22;13395;50.752;4.268;2024-02-26T09:26:16;6.30;99.90
25482;DHT22;13395;50.752;4.268;2024-02-26T09:28:41;6.30;99.90
25482;DHT22;13395;50.752;4.268;2024-02-26T09:31:07;6.30;99.90
25482;DHT22;13395;50.752;4.268;2024-02-26T09:33:33;6.30;99.90
25482;DHT22;13395;50.752;4.268;2024-02-26T09:35:58;6.40;99.90
25482;DHT22;13395;50.752;4.268;2024-02-26T09:38:26;6.40;99.90
25482;DHT22;13395;50.752;4.268;2024-02-26T09:40:51;6.40;99.90
25482;DHT22;13395;50.752;4.268;2024-02-26T09:43:17;6.40;99.90
25482;DHT22;13395;50.752;4.268;2024-02-26T09:45:44;6.40;99.90
25482;DHT22;13395;50.752;4.268;2024-02-26T09:48:10;6.40;99.90
25482;DHT22;13395;50.752;4.268;2024-02-26T09:50:38;6.40;99.90
25482;DHT22;13395;50.752;4.268;2024-02-26T09:53:04;6.40;99.90
25482;DHT22;13395;50.752;4.268;2024-02-26T09:55:30;6.50;99.90
25482;DHT22;13395;50.752;4.268;2024-02-26T09:57:56;6.50;99.90
25482;DHT22;13395;50.752;4.268;2024-02-26T10:00:23;6.50;99.90
25482;DHT22;13395;50.752;4.268;2024-02-26T10:02:50;6.50;99.90
25482;DHT22;13395;50.752;4.268;2024-02-26T10:05:17;6.60;99.90
25482;DHT22;13395;50.752;4.268;2024-02-26T10:07:46;6.60;99.90
25482;DHT22;13395;50.752;4.268;2024-02-26T10:10:12;6.60;99.90
25482;DHT22;13395;50.752;4.268;2024-02-26T10:12:38;6.70;99.90
25482;DHT22;13395;50.752;4.268;2024-02-26T10:15:03;6.70;99.90
25482;DHT22;13395;50.752;4.268;2024-02-26T10:17:29;6.70;99.90
25482;DHT22;13395;50.752;4.268;2024-02-26T10:19:56;6.70;99.90
25482;DHT22;13395;50.752;4.268;2024-02-26T10:22:35;6.70;99.90
25482;DHT22;13395;50.752;4.268;2024-02-26T10:25:00;6.80;99.90
25482;DHT22;13395;50.752;4.268;2024-02-26T10:27:26;6.80;99.90
25482;DHT22;13395;50.752;4.268;2024-02-26T10:29:53;6.80;99.90
25482;DHT22;13395;50.752;4.268;2024-02-26T10:32:21;6.80;99.90
25482;DHT22;13395;50.752;4.268;2024-02-26T10:34:47;6.80;99.90
25482;DHT22;13395;50.752;4.268;2024-02-26T10:37:12;6.70;99.90
25482;DHT22;13395;50.752;4.268;2024-02-26T10:39:39;6.70;99.90
25482;DHT22;13395;50.752;4.268;2024-02-26T10:42:12;6.70;99.90
25482;DHT22;13395;50.752;4.268;2024-02-26T10:44:39;6.80;99.90
25482;DHT22;13395;50.752;4.268;2024-02-26T10:47:05;6.90;99.90
25482;DHT22;13395;50.752;4.268;2024-02-26T10:49:31;7.00;99.90
25482;DHT22;13395;50.752;4.268;2024-02-26T10:51:57;7.00;99.90
25482;DHT22;13395;50.752;4.268;2024-02-26T10:54:23;7.10;99.90
25482;DHT22;13395;50.752;4.268;2024-02-26T10:56:50;7.10;99.90
25482;DHT22;13395;50.752;4.268;2024-02-26T10:59:16;7.00;99.90
25482;DHT22;13395;50.752;4.268;2024-02-26T11:01:46;6.80;99.90
25482;DHT22;13395;50.752;4.268;2024-02-26T11:04:12;6.80;99.90
25482;DHT22;13395;50.752;4.268;2024-02-26T11:06:38;6.80;99.90
25482;DHT22;13395;50.752;4.268;2024-02-26T11:09:05;6.80;99.90
25482;DHT22;13395;50.752;4.268;2024-02-26T11:11:31;6.70;99.90
25482;DHT22;13395;50.752;4.268;2024-02-26T11:13:59;6.70;99.90
25482;DHT22;13395;50.752;4.268;2024-02-26T11:16:26;6.70;99.90
25482;DHT22;13395;50.752;4.268;2024-02-26T11:18:53;6.70;99.90
25482;DHT22;13395;50.752;4.268;2024-02-26T11:21:21;6.70;99.90
25482;DHT22;13395;50.752;4.268;2024-02-26T11:23:56;6.80;99.90
25482;DHT22;13395;50.752;4.268;2024-02-26T11:26:21;6.80;99.90
25482;DHT22;13395;50.752;4.268;2024-02-26T11:28:48;6.80;99.90
25482;DHT22;13395;50.752;4.268;2024-02-26T11:31:14;6.80;99.90
25482;DHT22;13395;50.752;4.268;2024-02-26T11:33:40;6.70;99.90
25482;DHT22;13395;50.752;4.268;2024-02-26T11:36:09;6.70;99.90
25482;DHT22;13395;50.752;4.268;2024-02-26T11:38:35;6.80;99.90
25482;DHT22;13395;50.752;4.268;2024-02-26T11:41:01;6.80;99.90
25482;DHT22;13395;50.752;4.268;2024-02-26T11:46:26;6.80;99.90
25482;DHT22;13395;50.752;4.268;2024-02-26T11:48:54;6.80;99.90
25482;DHT22;13395;50.752;4.268;2024-02-26T11:51:24;6.80;99.90
25482;DHT22;13395;50.752;4.268;2024-02-26T11:53:50;6.80;99.90
25482;DHT22;13395;50.752;4.268;2024-02-26T11:56:19;6.90;99.90
25482;DHT22;13395;50.752;4.268;2024-02-26T11:58:46;6.90;99.90
25482;DHT22;13395;50.752;4.268;2024-02-26T12:03:56;6.90;99.90
25482;DHT22;13395;50.752;4.268;2024-02-26T12:06:22;6.80;99.90
25482;DHT22;13395;50.752;4.268;2024-02-26T12:08:47;6.80;99.90
25482;DHT22;13395;50.752;4.268;2024-02-26T12:11:16;6.90;99.90
25482;DHT22;13395;50.752;4.268;2024-02-26T12:13:41;6.80;99.90
25482;DHT22;13395;50.752;4.268;2024-02-26T12:16:07;6.90;99.90
25482;DHT22;13395;50.752;4.268;2024-02-26T12:18:34;6.90;99.90
25482;DHT22;13395;50.752;4.268;2024-02-26T12:21:00;7.00;99.90
25482;DHT22;13395;50.752;4.268;2024-02-26T12:23:29;6.90;99.90
25482;DHT22;13395;50.752;4.268;2024-02-26T12:25:58;6.90;99.90
25482;DHT22;13395;50.752;4.268;2024-02-26T12:28:27;6.80;99.90
25482;DHT22;13395;50.752;4.268;2024-02-26T12:30:53;6.80;99.90
25482;DHT22;13395;50.752;4.268;2024-02-26T12:33:18;6.80;99.90
25482;DHT22;13395;50.752;4.268;2024-02-26T12:35:44;6.80;99.90
25482;DHT22;13395;50.752;4.268;2024-02-26T12:38:14;6.70;99.90
25482;DHT22;13395;50.752;4.268;2024-02-26T12:40:39;6.70;99.90
25482;DHT22;13395;50.752;4.268;2024-02-26T12:43:05;6.80;99.90
25482;DHT22;13395;50.752;4.268;2024-02-26T12:45:30;6.70;99.90
25482;DHT22;13395;50.752;4.268;2024-02-26T12:47:57;6.80;99.90
25482;DHT22;13395;50.752;4.268;2024-02-26T12:50:24;6.80;99.90
25482;DHT22;13395;50.752;4.268;2024-02-26T12:52:49;6.70;99.90
25482;DHT22;13395;50.752;4.268;2024-02-26T12:55:16;6.70;99.90
25482;DHT22;13395;50.752;4.268;2024-02-26T12:57:43;6.80;99.90
25482;DHT22;13395;50.752;4.268;2024-02-26T13:00:11;6.80;99.90
25482;DHT22;13395;50.752;4.268;2024-02-26T13:02:37;6.70;99.90
25482;DHT22;13395;50.752;4.268;2024-02-26T13:05:04;6.80;99.90
25482;DHT22;13395;50.752;4.268;2024-02-26T13:07:30;6.90;99.90
25482;DHT22;13395;50.752;4.268;2024-02-26T13:09:56;6.90;99.90
25482;DHT22;13395;50.752;4.268;2024-02-26T13:12:22;6.90;99.90
25482;DHT22;13395;50.752;4.268;2024-02-26T13:14:57;6.90;99.90
25482;DHT22;13395;50.752;4.268;2024-02-26T13:17:23;6.90;99.90
25482;DHT22;13395;50.752;4.268;2024-02-26T13:19:50;6.90;99.90
25482;DHT22;13395;50.752;4.268;2024-02-26T13:22:16;7.00;99.90
25482;DHT22;13395;50.752;4.268;2024-02-26T13:24:41;7.10;99.90
25482;DHT22;13395;50.752;4.268;2024-02-26T13:27:07;7.00;99.90
25482;DHT22;13395;50.752;4.268;2024-02-26T13:29:33;7.00;99.90
25482;DHT22;13395;50.752;4.268;2024-02-26T13:31:58;7.00;99.90
25482;DHT22;13395;50.752;4.268;2024-02-26T13:34:28;6.90;99.90
25482;DHT22;13395;50.752;4.268;2024-02-26T13:36:54;6.90;99.90
25482;DHT22;13395;50.752;4.268;2024-02-26T13:39:23;6.80;99.90
25482;DHT22;13395;50.752;4.268;2024-02-26T13:41:49;6.70;99.90
25482;DHT22;13395;50.752;4.268;2024-02-26T13:44:15;6.70;99.90
25482;DHT22;13395;50.752;4.268;2024-02-26T13:46:41;6.70;99.90
25482;DHT22;13395;50.752;4.268;2024-02-26T13:49:07;6.60;99.90
25482;DHT22;13395;50.752;4.268;2024-02-26T13:51:33;6.60;99.90
25482;DHT22;13395;50.752;4.268;2024-02-26T13:54:01;6.70;99.90
25482;DHT22;13395;50.752;4.268;2024-02-26T13:56:26;6.80;99.90
25482;DHT22;13395;50.752;4.268;2024-02-26T13:58:52;6.80;99.90
25482;DHT22;13395;50.752;4.268;2024-02-26T14:01:17;6.80;99.90
25482;DHT22;13395;50.752;4.268;2024-02-26T14:03:43;6.80;99.90
25482;DHT22;13395;50.752;4.268;2024-02-26T14:06:09;6.70;99.90
25482;DHT22;13395;50.752;4.268;2024-02-26T14:08:35;6.70;99.90
25482;DHT22;13395;50.752;4.268;2024-02-26T14:11:00;6.60;99.90
25482;DHT22;13395;50.752;4.268;2024-02-26T14:13:26;6.60;99.90
25482;DHT22;13395;50.752;4.268;2024-02-26T14:15:51;6.70;99.90
25482;DHT22;13395;50.752;4.268;2024-02-26T14:18:17;6.70;99.90
25482;DHT22;13395;50.752;4.268;2024-02-26T14:20:42;6.70;99.90
25482;DHT22;13395;50.752;4.268;2024-02-26T14:23:09;6.60;99.90
25482;DHT22;13395;50.752;4.268;2024-02-26T14:25:35;6.60;99.90
25482;DHT22;13395;50.752;4.268;2024-02-26T14:28:02;6.60;99.90
25482;DHT22;13395;50.752;4.268;2024-02-26T14:30:27;6.60;99.90
25482;DHT22;13395;50.752;4.268;2024-02-26T14:32:56;6.60;99.90
25482;DHT22;13395;50.752;4.268;2024-02-26T14:35:21;6.60;99.90
25482;DHT22;13395;50.752;4.268;2024-02-26T14:37:47;6.60;99.90
25482;DHT22;13395;50.752;4.268;2024-02-26T14:40:14;6.60;99.90
25482;DHT22;13395;50.752;4.268;2024-02-26T14:42:40;6.60;99.90
25482;DHT22;13395;50.752;4.268;2024-02-26T14:45:06;6.70;99.90
25482;DHT22;13395;50.752;4.268;2024-02-26T14:47:34;6.60;99.90
25482;DHT22;13395;50.752;4.268;2024-02-26T14:50:00;6.60;99.90
25482;DHT22;13395;50.752;4.268;2024-02-26T14:52:25;6.60;99.90
25482;DHT22;13395;50.752;4.268;2024-02-26T14:54:51;6.80;99.90
25482;DHT22;13395;50.752;4.268;2024-02-26T14:57:16;6.80;99.90
25482;DHT22;13395;50.752;4.268;2024-02-26T14:59:42;6.80;99.90
25482;DHT22;13395;50.752;4.268;2024-02-26T15:02:09;6.70;99.90
25482;DHT22;13395;50.752;4.268;2024-02-26T15:04:35;6.80;99.90
25482;DHT22;13395;50.752;4.268;2024-02-26T15:07:01;6.80;99.90
25482;DHT22;13395;50.752;4.268;2024-02-26T15:09:26;6.90;99.90
25482;DHT22;13395;50.752;4.268;2024-02-26T15:11:52;6.90;99.90
25482;DHT22;13395;50.752;4.268;2024-02-26T15:14:17;6.80;99.90
25482;DHT22;13395;50.752;4.268;2024-02-26T15:16:43;6.80;99.90
25482;DHT22;13395;50.752;4.268;2024-02-26T15:19:08;6.80;99.90
25482;DHT22;13395;50.752;4.268;2024-02-26T15:21:34;6.80;99.90
25482;DHT22;13395;50.752;4.268;2024-02-26T15:23:59;6.80;99.90
25482;DHT22;13395;50.752;4.268;2024-02-26T15:26:25;6.90;99.90
25482;DHT22;13395;50.752;4.268;2024-02-26T15:28:51;6.80;99.90
25482;DHT22;13395;50.752;4.268;2024-02-26T15:31:17;6.80;99.90
25482;DHT22;13395;50.752;4.268;2024-02-26T15:33:43;6.70;99.90
25482;DHT22;13395;50.752;4.268;2024-02-26T15:36:08;6.70;99.90
25482;DHT22;13395;50.752;4.268;2024-02-26T15:38:37;6.70;99.90
25482;DHT22;13395;50.752;4.268;2024-02-26T15:41:11;6.70;99.90
25482;DHT22;13395;50.752;4.268;2024-02-26T15:43:37;6.70;99.90